Time;durP1;ratioP1;P1;durP2;ratioP2;P2;SDS_P1;SDS_P2;PMS_P1;PMS_P2;Temp;Humidity;BMP_temperature;BMP_pressure;BME280_temperature;BME280_humidity;BME280_pressure;Samples;Min_cycle;Max_cycle;Signal;HPM_P1;HPM_P2
2021/04/01 00:00:37;;;;;;;;;;;;;;;6.59;76.59;101865.00;6261580;28;20209;-71
2021/04/01 00:03:52;;;;;;;;;;;;;;;6.64;77.03;101868.91;6261594;28;20070;-72
2021/04/01 00:06:55;;;;;;;;;;;;;;;6.76;77.22;101864.00;6261801;28;19921;-72
2021/04/01 00:09:58;;;;;;;;;;;;;;;6.64;74.29;101855.34;6262604;28;19928;-72
2021/04/01 00:13:01;;;;;;;;;;;;;;;6.84;73.67;101855.88;6262509;28;19928;-72
2021/04/01 00:16:05;;;;;;;;;;;;;;;6.78;73.89;101857.38;6262706;28;19920;-72
2021/04/01 00:19:12;;;;;;;;;;;;;;;6.68;72.72;101858.56;6261337;28;19921;-72
2021/04/01 00:22:16;;;;;;;;;;;;;;;6.68;72.05;101850.41;6262292;28;19921;-72
2021/04/01 00:25:19;;;;;;;;;;;;;;;6.68;70.70;101850.41;6262585;28;19983;-71
2021/04/01 00:28:22;;;;;;;;;;;;;;;6.52;68.73;101845.00;6266749;28;19964;-73
2021/04/01 00:31:26;;;;;;;;;;;;;;;6.57;69.07;101848.03;6270558;28;19928;-72
2021/04/01 00:34:29;;;;;;;;;;;;;;;6.65;67.86;101856.19;6266495;28;20016;-71
2021/04/01 00:37:32;;;;;;;;;;;;;;;6.58;67.65;101855.16;6265727;28;20262;-72
2021/04/01 00:40:36;;;;;;;;;;;;;;;6.54;66.48;101870.06;6265705;28;20196;-72
2021/04/01 00:43:40;;;;;;;;;;;;;;;6.45;66.50;101863.75;6266861;28;19928;-71
2021/04/01 00:46:45;;;;;;;;;;;;;;;6.45;66.56;101861.06;6265875;28;19957;-74
2021/04/01 00:49:50;;;;;;;;;;;;;;;6.48;65.55;101858.03;6248210;28;19921;-71
2021/04/01 00:52:53;;;;;;;;;;;;;;;6.51;65.23;101848.69;6266261;28;19969;-71
2021/04/01 00:55:56;;;;;;;;;;;;;;;6.46;65.60;101851.06;6266675;28;19956;-72
2021/04/01 00:58:59;;;;;;;;;;;;;;;6.48;65.36;101857.16;6266653;28;20000;-72
2021/04/01 01:02:04;;;;;;;;;;;;;;;6.37;65.48;101863.72;6265658;28;19988;-71
2021/04/01 01:05:10;;;;;;;;;;;;;;;6.37;65.67;101857.50;6265859;28;19932;-72
2021/04/01 01:08:21;;;;;;;;;;;;;;;6.36;65.69;101853.94;6265025;28;20085;-71
2021/04/01 01:11:24;;;;;;;;;;;;;;;6.37;65.48;101854.78;6265947;28;19959;-72
2021/04/01 01:14:27;;;;;;;;;;;;;;;6.14;66.73;101847.22;6265937;28;19928;-72
2021/04/01 01:17:31;;;;;;;;;;;;;;;6.15;65.94;101859.78;6264759;28;20211;-71
2021/04/01 01:20:35;;;;;;;;;;;;;;;6.04;65.73;101851.94;6266007;28;20062;-71
2021/04/01 01:23:56;;;;;;;0.90;0.90;;;;;;;6.05;66.00;101853.66;6265338;28;20060;-71
2021/04/01 01:27:02;;;;;;;1.10;1.10;;;;;;;6.11;65.71;101858.41;6265444;28;20189;-71
2021/04/01 01:30:07;;;;;;;1.23;0.90;;;;;;;6.01;65.65;101846.84;6265293;28;20286;-71
2021/04/01 01:33:17;;;;;;;0.80;0.80;;;;;;;6.14;66.11;101855.38;6263924;28;20184;-71
2021/04/01 01:36:21;;;;;;;2.07;0.97;;;;;;;6.15;64.54;101848.94;6265076;28;20188;-71
2021/04/01 01:39:24;;;;;;;0.80;0.80;;;;;;;6.02;64.99;101853.97;6265072;28;20188;-72
2021/04/01 01:42:28;;;;;;;1.07;0.97;;;;;;;6.12;64.81;101860.09;6264701;28;20188;-72
2021/04/01 01:45:32;;;;;;;0.83;0.83;;;;;;;6.11;64.91;101863.81;6264764;28;20284;-72
2021/04/01 01:48:35;;;;;;;1.20;1.00;;;;;;;6.12;64.71;101857.41;6263225;28;20217;-72
2021/04/01 01:51:39;;;;;;;2.20;1.10;;;;;;;6.03;64.13;101861.09;6264800;28;20185;-72
2021/04/01 01:54:42;;;;;;;0.90;0.90;;;;;;;5.98;64.72;101862.59;6263523;28;20473;-72
2021/04/01 01:57:47;;;;;;;1.43;0.90;;;;;;;5.83;64.07;101862.28;6264707;28;20185;-72
2021/04/01 02:00:55;;;;;;;1.00;0.90;;;;;;;5.53;63.79;101824.91;6263208;28;20361;-72
2021/04/01 02:04:01;;;;;;;;;;;;;;;5.71;63.66;101866.31;6264461;28;20291;-72
2021/04/01 02:07:08;;;;;;;0.90;0.90;;;;;;;5.63;64.43;101868.94;6263976;28;20570;-72
2021/04/01 02:10:15;;;;;;;1.00;1.00;;;;;;;5.61;64.27;101871.84;6264045;28;20187;-72
2021/04/01 02:13:20;;;;;;;;;;;;;;;5.57;63.55;101875.03;6264791;28;20238;-72
2021/04/01 02:16:23;;;;;;;2.00;1.00;;;;;;;5.81;63.85;101872.44;6264002;28;20228;-71
2021/04/01 02:19:26;;;;;;;;;;;;;;;5.79;63.28;101874.47;6263523;28;20494;-72
2021/04/01 02:22:29;;;;;;;;;;;;;;;5.57;63.39;101878.56;6263740;28;19921;-72
2021/04/01 02:25:33;;;;;;;;;;;;;;;5.33;63.01;101888.38;6264061;28;19939;-72
2021/04/01 02:28:37;;;;;;;;;;;;;;;5.43;63.20;101878.31;6264503;28;19979;-72
2021/04/01 02:31:40;;;;;;;;;;;;;;;5.42;63.22;101888.28;6264328;28;19976;-72
2021/04/01 02:34:43;;;;;;;0.90;0.90;;;;;;;5.54;64.02;101881.63;6263444;28;20206;-71
2021/04/01 02:37:46;;;;;;;1.07;1.07;;;;;;;5.49;63.30;101888.50;6262272;28;20494;-71
2021/04/01 02:40:50;;;;;;;1.00;1.00;;;;;;;5.37;63.74;101892.44;6263697;28;20187;-71
2021/04/01 02:43:54;;;;;;;1.20;1.20;;;;;;;5.55;62.79;101887.84;6263602;28;20212;-71
2021/04/01 02:46:57;;;;;;;;;;;;;;;5.48;63.42;101884.94;6263734;28;20185;-71
2021/04/01 02:50:01;;;;;;;;;;;;;;;5.28;63.74;101896.13;6262602;28;20143;-71
2021/04/01 02:53:13;;;;;;;;;;;;;;;5.37;63.21;101895.16;6262533;28;20269;-71
2021/04/01 02:56:16;;;;;;;1.20;1.10;;;;;;;5.32;64.24;101897.50;6262521;28;20142;-71
2021/04/01 02:59:20;;;;;;;1.60;1.00;;;;;;;5.37;63.05;101898.72;6261977;28;20185;-72
2021/04/01 03:02:27;;;;;;;0.93;0.93;;;;;;;5.38;63.09;101891.47;6262723;28;20208;-71
2021/04/01 03:05:30;;;;;;;1.20;1.10;;;;;;;5.33;62.09;101891.09;6262173;28;20247;-72
2021/04/01 03:08:33;;;;;;;1.17;1.13;;;;;;;5.26;63.11;101898.13;6262819;28;20203;-71
2021/04/01 03:11:36;;;;;;;0.97;0.97;;;;;;;5.06;63.66;101898.31;6262771;28;20187;-72
2021/04/01 03:14:40;;;;;;;0.87;0.87;;;;;;;5.06;64.49;101892.91;6261692;28;20192;-72
2021/04/01 03:17:44;;;;;;;0.80;0.80;;;;;;;5.06;63.61;101903.72;6262737;28;20188;-72
2021/04/01 03:20:48;;;;;;;1.07;1.00;;;;;;;5.03;64.01;101904.00;6261494;28;20210;-72
2021/04/01 03:23:51;;;;;;;0.90;0.90;;;;;;;5.05;63.39;101902.03;6262753;28;20243;-72
2021/04/01 03:26:54;;;;;;;1.07;0.93;;;;;;;5.08;64.20;101906.28;6261441;28;20445;-72
2021/04/01 03:30:05;;;;;;;2.73;2.03;;;;;;;5.00;63.83;101907.06;6261440;28;20259;-72
2021/04/01 03:33:14;;;;;;;5.73;2.70;;;;;;;5.05;63.84;101909.28;6261139;28;20194;-72
2021/04/01 03:36:17;;;;;;;6.07;4.23;;;;;;;4.85;64.40;101870.72;6262471;28;20188;-72
2021/04/01 03:39:20;;;;;;;9.30;4.50;;;;;;;5.08;63.86;101904.41;6262164;28;20188;-72
2021/04/01 03:42:25;;;;;;;10.20;5.20;;;;;;;4.93;64.19;101905.94;6261468;28;20188;-72
2021/04/01 03:45:29;;;;;;;8.83;4.97;;;;;;;4.93;64.49;101903.25;6262407;28;20211;-72
2021/04/01 03:48:32;;;;;;;3.63;3.27;;;;;;;4.75;64.93;101909.69;6262155;28;20187;-72
2021/04/01 03:51:35;;;;;;;3.97;3.57;;;;;;;4.83;64.73;101907.88;6262175;28;20188;-71
2021/04/01 03:54:46;;;;;;;2.63;2.53;;;;;;;4.69;65.75;101916.53;6262144;28;20191;-72
2021/04/01 03:57:53;;;;;;;3.13;2.53;;;;;;;4.74;65.33;101919.63;6262442;28;20255;-72
2021/04/01 04:01:08;;;;;;;7.87;1.90;;;;;;;4.72;64.70;101927.06;6262406;28;20219;-72
2021/04/01 04:11:02;;;;;;;1.70;1.60;;;;;;;4.65;65.68;101935.94;6265298;28;20227;-72
2021/04/01 04:14:09;;;;;;;1.37;1.30;;;;;;;4.64;64.68;101929.66;6267082;28;20191;-71
2021/04/01 04:17:16;;;;;;;1.27;1.27;;;;;;;4.63;64.94;101937.91;6266622;28;20188;-71
2021/04/01 04:20:19;;;;;;;0.90;0.90;;;;;;;4.64;64.49;101939.63;6267015;28;20259;-72
2021/04/01 04:23:24;;;;;;;2.40;1.20;;;;;;;4.57;66.02;101928.56;6265470;28;20219;-72
2021/04/01 04:26:27;;;;;;;1.20;1.10;;;;;;;4.49;65.49;101931.19;6266888;28;20219;-72
2021/04/01 04:29:30;;;;;;;1.30;1.00;;;;;;;4.47;65.89;101943.97;6266625;28;20253;-71
2021/04/01 04:32:35;;;;;;;1.10;1.10;;;;;;;4.56;65.92;101943.09;6266424;28;20199;-72
2021/04/01 04:35:38;;;;;;;0.90;0.90;;;;;;;4.59;65.63;101950.03;6266530;28;20190;-72
2021/04/01 04:38:42;;;;;;;2.33;1.27;;;;;;;4.39;66.32;101968.22;6266520;28;20188;-71
2021/04/01 04:41:45;;;;;;;5.17;0.80;;;;;;;4.43;66.67;101948.00;6266018;28;20250;-71
2021/04/01 04:44:48;;;;;;;2.50;1.00;;;;;;;4.38;66.57;101961.09;6265984;28;20213;-71
2021/04/01 04:47:52;;;;;;;0.93;0.93;;;;;;;4.32;66.95;101961.69;6265279;28;20232;-72
2021/04/01 04:50:56;;;;;;;2.90;1.10;;;;;;;4.41;66.69;101956.25;6266175;28;20188;-72
2021/04/01 04:53:59;;;;;;;2.33;0.93;;;;;;;4.43;66.09;101965.06;6265034;28;20191;-72
2021/04/01 04:57:07;;;;;;;1.27;1.10;;;;;;;4.31;66.33;101966.25;6265836;28;20220;-72
2021/04/01 05:07:05;;;;;;;0.87;0.80;;;;;;;4.29;66.22;101967.38;6215535;28;20495;-72
2021/04/01 05:10:09;;;;;;;2.33;0.90;;;;;;;4.37;65.82;101975.59;6216527;28;20309;-71
2021/04/01 05:13:15;;;;;;;3.67;1.00;;;;;;;4.35;66.52;101958.69;6216607;28;20211;-71
2021/04/01 05:16:18;;;;;;;0.73;0.73;;;;;;;4.46;66.02;101963.91;6215953;28;20193;-71
2021/04/01 05:19:24;;;;;;;0.90;0.90;;;;;;;4.61;65.33;101973.22;6215489;28;20188;-72
2021/04/01 05:22:34;;;;;;;1.93;1.03;;;;;;;4.50;65.89;101981.50;6215359;28;20196;-71
2021/04/01 05:25:38;;;;;;;1.60;0.93;;;;;;;4.43;66.24;101975.00;6216194;28;20217;-71
2021/04/01 05:28:43;;;;;;;0.90;0.90;;;;;;;4.50;66.30;101976.13;6216247;28;20226;-72
2021/04/01 05:32:03;;;;;;;1.00;1.00;;;;;;;4.45;65.83;101983.81;6214894;28;20361;-73
2021/04/01 05:35:12;;;;;;;0.93;0.90;;;;;;;4.58;65.84;101973.50;6215759;28;20231;-71
2021/04/01 05:38:20;;;;;;;4.53;1.00;;;;;;;4.61;66.00;101975.06;6215602;28;20195;-71
2021/04/01 05:41:25;;;;;;;1.93;1.20;;;;;;;4.57;65.37;101974.50;6215860;28;20241;-71
2021/04/01 05:44:32;;;;;;;1.30;1.30;;;;;;;4.25;65.52;101961.44;6214789;28;20278;-71
2021/04/01 05:47:38;;;;;;;1.53;0.70;;;;;;;4.18;67.22;101986.50;6215017;28;20196;-71
2021/04/01 05:50:53;;;;;;;2.27;0.90;;;;;;;4.39;66.46;101979.03;6214819;28;20188;-70
2021/04/01 06:01:02;;;;;;;0.90;0.90;;;;;;;4.46;66.48;101969.31;6215287;28;20384;-71
2021/04/01 06:04:09;;;;;;;1.30;0.70;;;;;;;4.60;66.17;101997.69;6217234;28;20208;-71
2021/04/01 06:07:18;;;;;;;2.93;1.00;;;;;;;4.62;65.15;101964.13;6237526;28;20357;-72
2021/04/01 06:10:23;;;;;;;1.00;1.00;;;;;;;4.58;65.48;101989.72;6238611;28;20505;-73
2021/04/01 06:13:31;;;;;;;1.67;0.70;;;;;;;4.53;65.70;101992.03;6238122;28;20194;-71
2021/04/01 06:16:38;;;;;;;0.90;0.90;;;;;;;4.40;65.63;101991.53;6239288;28;20215;-71
2021/04/01 06:19:47;;;;;;;2.67;0.80;;;;;;;4.57;65.94;101993.41;6239418;28;20586;-72
2021/04/01 06:22:54;;;;;;;;;;;;;;;4.62;65.66;101980.34;6238407;28;20373;-71
2021/04/01 06:25:58;;;;;;;1.37;1.03;;;;;;;4.62;66.28;101985.75;6238187;28;19955;-72
2021/04/01 06:29:03;;;;;;;;;;;;;;;4.76;66.01;101987.91;6238469;28;20248;-73
2021/04/01 06:32:17;;;;;;;;;;;;;;;4.79;64.98;101993.03;6239601;28;19953;-72
2021/04/01 06:35:24;;;;;;;;;;;;;;;4.96;64.56;101989.50;6239414;28;19957;-71
2021/04/01 06:38:34;;;;;;;;;;;;;;;5.10;64.10;101996.25;6239420;28;19917;-71
2021/04/01 06:41:37;;;;;;;;;;;;;;;5.07;65.03;101986.56;6239226;28;20034;-72
2021/04/01 06:44:44;;;;;;;;;;;;;;;5.15;64.68;101993.91;6238186;28;20135;-71
2021/04/01 06:47:49;;;;;;;;;;;;;;;5.13;63.79;101998.66;6239475;28;19952;-72
2021/04/01 06:50:58;;;;;;;;;;;;;;;5.14;64.33;102002.19;6240480;28;19952;-72
2021/04/01 06:54:08;;;;;;;;;;;;;;;5.26;64.02;102007.22;6240563;28;19976;-73
2021/04/01 06:57:38;;;;;;;;;;;;;;;5.33;64.01;101993.91;6239277;28;20023;-72
2021/04/01 07:01:05;;;;;;;;;;;;;;;5.49;63.38;101997.63;6239348;28;19917;-72
2021/04/01 07:04:13;;;;;;;;;;;;;;;5.66;63.93;101995.91;6238746;28;20062;-73
2021/04/01 07:07:18;;;;;;;;;;;;;;;5.72;63.58;102002.56;6239617;28;19924;-72
2021/04/01 07:10:39;;;;;;;;;;;;;;;5.83;63.73;102010.44;6239382;28;19963;-73
2021/04/01 07:13:47;;;;;;;;;;;;;;;5.82;63.07;102011.44;6239418;28;19917;-72
2021/04/01 07:16:55;;;;;;;;;;;;;;;5.83;63.31;102011.25;6239234;28;19980;-72
2021/04/01 07:20:23;;;;;;;;;;;;;;;5.86;62.90;102010.97;6239591;28;19918;-71
2021/04/01 07:23:49;;;;;;;;;;;;;;;5.67;63.14;102011.97;6239305;28;19952;-71
2021/04/01 07:47:17;;;;;;;;;;;;;;;5.77;62.89;102014.63;6243249;28;19924;-71
2021/04/01 07:50:22;;;;;;;;;;;;;;;5.71;62.56;102012.53;6242908;28;20144;-72
2021/04/01 07:53:26;;;;;;;;;;;;;;;5.93;62.92;102017.44;6243482;28;19921;-72
2021/04/01 07:56:34;;;;;;;;;;;;;;;6.03;62.74;102018.25;6243808;28;19917;-72
2021/04/01 07:59:50;;;;;;;;;;;;;;;6.08;63.02;102015.91;6243395;28;19924;-72
2021/04/01 08:03:19;;;;;;;;;;;;;;;6.05;62.27;102010.78;6243135;28;19940;-72
2021/04/01 08:06:23;;;;;;;;;;;;;;;6.14;62.73;102012.53;6242561;28;19992;-71
2021/04/01 08:09:29;;;;;;;;;;;;;;;6.22;62.15;102012.59;6243164;28;19963;-71
2021/04/01 08:12:39;;;;;;;;;;;;;;;6.13;61.75;102008.13;6243214;28;19917;-73
2021/04/01 08:15:48;;;;;;;;;;;;;;;6.27;62.02;102015.66;6242041;28;20231;-73
2021/04/01 08:18:52;;;;;;;;;;;;;;;6.16;61.00;102015.91;6240763;28;19918;-71
2021/04/01 08:21:56;;;;;;;;;;;;;;;6.18;61.02;102011.22;6242845;28;19922;-72
2021/04/01 08:25:23;;;;;;;2.83;0.80;;;;;;;6.28;60.92;102011.94;6240927;28;20544;-72
2021/04/01 08:29:05;;;;;;;0.87;0.87;;;;;;;6.39;59.70;102012.69;6242353;28;20212;-72
2021/04/01 08:32:47;;;;;;;1.80;0.83;;;;;;;6.38;59.54;102011.81;6242331;28;20189;-72
2021/04/01 08:36:13;;;;;;;0.80;0.80;;;;;;;6.39;59.96;102018.09;6242065;28;20196;-72
2021/04/01 08:39:37;;;;;;;1.80;0.90;;;;;;;6.39;58.90;102018.09;6241010;28;20189;-72
2021/04/01 08:43:35;;;;;;;0.80;0.80;;;;;;;6.34;58.75;102004.19;6240537;28;20197;-72
2021/04/01 08:47:04;;;;;;;;;;;;;;;6.27;59.02;102004.81;6256724;28;20232;-72
2021/04/01 08:50:26;;;;;;;;;;;;;;;6.38;59.15;102010.97;6242077;28;19924;-72
2021/04/01 08:53:40;;;;;;;;;;;;;;;6.40;59.41;102011.66;6241402;28;19917;-72
2021/04/01 08:56:50;;;;;;;;;;;;;;;6.45;58.91;102017.44;6241227;28;19960;-72
2021/04/01 08:59:55;;;;;;;;;;;;;;;6.53;59.19;102028.31;6241900;28;19917;-72
2021/04/01 09:02:59;;;;;;;;;;;;;;;6.54;58.53;102032.75;6241221;28;19925;-72
2021/04/01 09:06:04;;;;;;;;;;;;;;;6.58;58.20;102029.56;6241032;28;19917;-72
2021/04/01 09:09:14;;;;;;;1.23;0.90;;;;;;;6.59;58.83;102019.56;6240976;28;20205;-72
2021/04/01 09:12:23;;;;;;;0.90;0.80;;;;;;;6.62;57.87;102033.66;6240356;28;20220;-71
2021/04/01 09:15:37;;;;;;;1.87;1.80;;;;;;;6.75;58.43;102035.91;6240663;28;20227;-71
2021/04/01 09:18:45;;;;;;;1.83;1.30;;;;;;;6.85;58.02;102042.06;6240023;28;20196;-71
2021/04/01 09:21:51;;;;;;;1.13;1.00;;;;;;;6.74;56.51;102045.06;6240310;28;20193;-71
2021/04/01 09:24:56;;;;;;;4.30;0.90;;;;;;;6.83;57.16;102033.22;6240017;28;20186;-71
2021/04/01 09:28:02;;;;;;;0.63;0.63;;;;;;;6.90;55.64;102020.69;6239866;28;20189;-73
2021/04/01 09:31:07;;;;;;;0.83;0.83;;;;;;;6.89;55.63;102029.84;6239197;28;20211;-72
2021/04/01 09:34:12;;;;;;;0.80;0.80;;;;;;;7.03;56.29;102029.22;6238983;28;20217;-71
2021/04/01 09:37:18;;;;;;;2.37;0.90;;;;;;;7.13;55.57;102032.66;6239786;28;20212;-71
2021/04/01 09:40:29;;;;;;;1.60;1.50;;;;;;;7.03;53.95;102037.38;6240191;28;20186;-71
2021/04/01 09:43:33;;;;;;;1.13;0.90;;;;;;;7.08;54.49;102017.88;6240131;28;20228;-70
2021/04/01 09:46:37;;;;;;;1.97;0.93;;;;;;;7.22;54.35;102018.06;6239484;28;20227;-71
2021/04/01 09:49:48;;;;;;;0.90;0.90;;;;;;;7.29;53.53;102008.22;6254919;28;20205;-71
2021/04/01 09:52:58;;;;;;;1.23;1.23;;;;;;;7.33;52.45;102004.19;6239610;28;20186;-71
2021/04/01 09:56:02;;;;;;;1.23;1.00;;;;;;;7.41;52.52;102012.34;6238351;28;20190;-72
2021/04/01 09:59:05;;;;;;;0.70;0.70;;;;;;;7.36;52.85;101998.41;6238638;28;20186;-71
2021/04/01 10:02:21;;;;;;;3.80;0.88;;;;;;;7.41;53.53;101985.19;6239551;28;20192;-72
2021/04/01 10:05:26;;;;;;;0.90;0.90;;;;;;;7.47;51.54;101989.91;6238288;28;20390;-72
2021/04/01 10:08:32;;;;;;;0.77;0.77;;;;;;;7.39;51.24;101997.22;6239193;28;20224;-72
2021/04/01 10:11:48;;;;;;;4.47;0.93;;;;;;;7.55;51.41;101992.66;6238248;28;20185;-72
2021/04/01 10:14:53;;;;;;;6.60;0.90;;;;;;;7.62;52.59;101994.69;6239309;28;20225;-71
2021/04/01 10:17:59;;;;;;;8.35;1.17;;;;;;;7.73;53.72;101992.47;6239057;28;20232;-72
2021/04/01 10:21:05;;;;;;;2.15;0.82;;;;;;;7.67;52.53;101995.03;6238957;28;20197;-72
2021/04/01 10:24:22;;;;;;;5.68;1.10;;;;;;;7.79;52.13;101991.78;6239067;28;20232;-73
2021/04/01 10:27:30;;;;;;;1.05;1.00;;;;;;;7.94;51.99;101992.78;6237824;28;20578;-71
2021/04/01 10:30:35;;;;;;;2.53;0.80;;;;;;;7.93;52.05;102006.56;6239177;28;20185;-71
2021/04/01 10:33:52;;;;;;;1.38;0.90;;;;;;;7.89;51.34;101997.03;6238006;28;20196;-71
2021/04/01 10:36:59;;;;;;;0.90;0.90;;;;;;;7.96;51.28;102001.63;6238572;28;20189;-71
2021/04/01 10:40:08;;;;;;;1.45;0.88;;;;;;;8.06;51.20;102002.28;6238682;28;20216;-71
2021/04/01 10:43:13;;;;;;;2.30;1.08;;;;;;;8.27;51.26;102009.91;6238769;28;20205;-72
2021/04/01 10:46:17;;;;;;;;;;;;;;;8.45;51.57;101991.50;6238628;28;20360;-72
2021/04/01 10:49:27;;;;;;;;;;;;;;;8.52;50.52;102003.41;6238762;28;20520;-72
2021/04/01 10:52:33;;;;;;;6.30;0.80;;;;;;;8.33;49.19;102017.38;6238175;28;19995;-72
2021/04/01 10:55:37;;;;;;;2.00;0.93;;;;;;;8.34;49.81;102010.09;6238229;28;20221;-71
2021/04/01 10:58:51;;;;;;;1.02;1.02;;;;;;;8.40;48.95;102004.78;6238506;28;20265;-72
2021/04/01 11:01:54;;;;;;;4.57;0.90;;;;;;;8.54;49.12;102006.78;6236981;28;20221;-71
2021/04/01 11:05:05;;;;;;;1.52;0.80;;;;;;;8.46;48.36;102014.97;6237308;28;20387;-72
2021/04/01 11:08:14;;;;;;;;;;;;;;;8.56;48.94;102004.75;6238929;28;20064;-72
2021/04/01 11:11:23;;;;;;;0.93;0.93;;;;;;;8.65;48.95;101998.22;6238243;28;20254;-73
2021/04/01 11:14:30;;;;;;;2.50;0.95;;;;;;;8.62;48.93;102004.03;6236696;28;20192;-72
2021/04/01 11:17:40;;;;;;;5.82;0.95;;;;;;;8.77;48.54;102013.16;6236662;28;20353;-72
2021/04/01 11:20:44;;;;;;;0.70;0.70;;;;;;;8.74;48.85;102010.78;6237361;28;20186;-72
2021/04/01 11:23:47;;;;;;;2.35;1.20;;;;;;;8.88;49.71;102013.78;6237431;28;20232;-72
2021/04/01 11:26:52;;;;;;;;;;;;;;;8.97;49.46;102007.25;6238371;28;20049;-71
2021/04/01 11:29:56;;;;;;;;;;;;;;;9.16;48.54;102012.28;6237147;28;19943;-72
2021/04/01 11:32:59;;;;;;;;;;;;;;;9.12;49.21;102000.03;6237512;28;19917;-72
2021/04/01 11:36:19;;;;;;;;;;;;;;;9.10;47.80;102002.09;6238218;28;19985;-72
2021/04/01 11:39:24;;;;;;;;;;;;;;;9.31;48.40;101999.59;6238543;28;19963;-72
2021/04/01 11:42:29;;;;;;;1.30;0.70;;;;;;;9.16;46.93;101985.91;6237818;28;20564;-72
2021/04/01 11:45:33;;;;;;;;;;;;;;;8.88;45.03;101998.31;6237132;28;20385;-72
2021/04/01 11:48:36;;;;;;;;;;;;;;;8.94;45.39;101974.97;6237084;28;20165;-72
2021/04/01 11:51:39;;;;;;;1.38;0.70;;;;;;;9.09;45.29;101973.19;6237936;28;19960;-72
2021/04/01 11:54:43;;;;;;;3.88;0.90;;;;;;;9.12;45.65;101978.25;6236561;28;20491;-72
2021/04/01 11:57:47;;;;;;;1.65;0.90;;;;;;;9.17;45.64;101975.84;6236689;28;20444;-71
2021/04/01 12:01:05;;;;;;;5.68;0.90;;;;;;;9.07;45.56;101975.22;6236123;28;20484;-72
2021/04/01 12:04:11;;;;;;;0.60;0.60;;;;;;;9.14;45.95;101970.78;6237627;28;20219;-73
2021/04/01 12:07:15;;;;;;;0.75;0.70;;;;;;;8.99;45.87;101956.25;6237260;28;20253;-72
2021/04/01 12:10:19;;;;;;;2.67;0.80;;;;;;;9.21;46.27;101933.63;6237352;28;20186;-72
2021/04/01 12:13:24;;;;;;;1.08;1.08;;;;;;;9.27;46.35;101928.28;6237637;28;20186;-72
2021/04/01 12:16:28;;;;;;;6.53;1.50;;;;;;;9.45;46.52;101930.69;6236440;28;20256;-72
2021/04/01 12:19:32;;;;;;;4.10;1.20;;;;;;;9.50;46.55;101930.97;6236558;28;20190;-72
2021/04/01 12:22:37;;;;;;;1.48;0.77;;;;;;;9.60;46.13;101928.88;6236153;28;20186;-71
2021/04/01 12:25:41;;;;;;;;;;;;;;;9.63;44.31;101936.66;6237952;28;20201;-71
2021/04/01 12:28:55;;;;;;;;;;;;;;;9.57;45.22;101945.59;6236784;28;19923;-71
2021/04/01 12:31:58;;;;;;;1.00;1.00;;;;;;;9.63;45.97;101933.94;6239907;28;20303;-71
2021/04/01 12:35:12;;;;;;;;;;;;;;;9.64;46.18;101935.63;6241196;28;19984;-71
2021/04/01 12:38:29;;;;;;;3.92;0.88;;;;;;;9.65;47.36;101942.78;6241725;28;20061;-71
2021/04/01 12:41:35;;;;;;;0.77;0.77;;;;;;;9.70;47.59;101940.34;6241658;28;20185;-71
2021/04/01 12:44:41;;;;;;;2.28;0.80;;;;;;;9.69;47.72;101944.09;6241783;28;20323;-72
2021/04/01 12:47:44;;;;;;;4.32;1.35;;;;;;;9.57;47.87;101939.28;6240326;28;20442;-72
2021/04/01 12:50:51;;;;;;;4.63;1.00;;;;;;;9.71;47.59;101936.59;6241841;28;20185;-71
2021/04/01 12:54:03;;;;;;;2.28;0.70;;;;;;;9.59;45.62;101935.34;6240299;28;20186;-72
2021/04/01 12:57:09;;;;;;;0.60;0.60;;;;;;;9.62;45.20;101926.81;6241376;28;20197;-71
2021/04/01 13:00:13;;;;;;;;;;;;;;;9.64;45.01;101923.88;6241665;28;20189;-72
2021/04/01 13:03:27;;;;;;;;;;;;;;;9.68;45.59;101915.13;6240845;28;20047;-72
2021/04/01 13:06:40;;;;;;;;;;;;;;;9.78;45.05;101915.75;6265017;28;19924;-72
2021/04/01 13:09:51;;;;;;;;;;;;;;;9.60;43.86;101922.56;6271066;28;20001;-73
2021/04/01 13:12:54;;;;;;;;;;;;;;;9.82;45.88;101917.06;6268589;28;20050;-72
2021/04/01 13:15:58;;;;;;;3.70;0.80;;;;;;;9.87;46.56;101909.16;6265300;28;20206;-72
2021/04/01 13:19:01;;;;;;;8.30;1.10;;;;;;;10.03;46.73;101914.47;6265274;28;20185;-72
2021/04/01 13:22:11;;;;;;;0.60;0.60;;;;;;;10.01;45.91;101905.59;6264222;28;20371;-72
2021/04/01 13:25:14;;;;;;;1.00;0.70;;;;;;;10.12;46.06;101895.28;6265040;28;20200;-72
2021/04/01 13:28:18;;;;;;;;;;;;;;;10.02;45.15;101895.53;6265130;28;20204;-72
2021/04/01 13:31:39;;;;;;;;;;;;;;;9.86;44.90;101902.00;6265390;28;19923;-71
2021/04/01 13:35:06;;;;;;;;;;;;;;;9.94;45.86;101921.00;6264907;28;19952;-72
2021/04/01 13:38:16;;;;;;;;;;;;;;;10.01;44.08;101915.69;6265650;28;19996;-72
2021/04/01 13:41:25;;;;;;;;;;;;;;;9.98;44.76;101914.16;6265072;28;19976;-72
2021/04/01 13:44:28;;;;;;;;;;;;;;;10.23;44.15;101919.34;6265027;28;20253;-72
2021/04/01 13:47:35;;;;;;;;;;;;;;;10.34;44.44;101916.16;6264165;28;20250;-71
2021/04/01 13:50:45;;;;;;;;;;;;;;;10.44;43.93;101911.25;6264504;28;19917;-72
2021/04/01 13:54:14;;;;;;;;;;;;;;;10.32;45.39;101910.06;6247854;28;19917;-72
2021/04/01 14:03:42;;;;;;;;;;;;;;;10.42;43.95;101916.06;6229314;28;20281;-73
2021/04/01 14:11:20;;;;;;;0.60;0.60;;;;;;;10.24;44.10;101900.09;6263925;28;20268;-71
2021/04/01 14:14:24;;;;;;;0.50;0.50;;;;;;;9.91;42.84;101888.66;6263832;28;20213;-72
2021/04/01 14:17:28;;;;;;;0.60;0.60;;;;;;;10.14;44.04;101904.16;6264196;28;20188;-72
2021/04/01 14:20:36;;;;;;;0.55;0.52;;;;;;;10.11;44.40;101902.59;6264066;28;20185;-71
2021/04/01 14:23:41;;;;;;;2.00;0.70;;;;;;;10.33;42.50;101904.41;6262846;28;20185;-72
2021/04/01 14:26:47;;;;;;;0.73;0.73;;;;;;;10.30;42.00;101909.38;6263696;28;20208;-72
2021/04/01 14:29:55;;;;;;;5.47;0.80;;;;;;;10.19;42.20;101904.41;6263608;28;20260;-71
2021/04/01 14:33:01;;;;;;;2.20;0.90;;;;;;;10.25;43.00;101890.00;6263793;28;20217;-72
2021/04/01 14:36:14;;;;;;;1.90;0.57;;;;;;;10.32;43.31;101912.78;6262634;28;20499;-73
2021/04/01 14:39:18;;;;;;;2.58;0.80;;;;;;;10.28;44.02;101886.91;6263445;28;20200;-72
2021/04/01 14:42:28;;;;;;;1.13;0.60;;;;;;;10.30;43.74;101914.84;6263410;28;20189;-72
2021/04/01 14:45:31;;;;;;;0.95;0.60;;;;;;;10.05;44.01;101906.94;6262187;28;20185;-72
2021/04/01 14:48:34;;;;;;;4.15;0.80;;;;;;;10.01;43.96;101900.13;6261991;28;20494;-72
2021/04/01 14:51:38;;;;;;;1.65;0.80;;;;;;;10.30;43.95;101898.47;6262200;28;20216;-71
2021/04/01 14:54:42;;;;;;;2.30;0.65;;;;;;;10.20;45.06;101915.13;6263080;28;20185;-72
2021/04/01 14:57:47;;;;;;;3.58;1.08;;;;;;;10.13;44.58;101902.44;6263020;28;20196;-72
2021/04/01 15:00:52;;;;;;;1.08;0.68;;;;;;;10.19;45.17;101907.16;6263010;28;20185;-72
2021/04/01 15:03:57;;;;;;;3.70;3.10;;;;;;;10.15;45.16;101900.38;6262473;28;20204;-74
2021/04/01 15:07:02;;;;;;;3.47;1.00;;;;;;;10.19;44.80;101899.81;6262504;28;20220;-72
2021/04/01 15:10:09;;;;;;;0.70;0.70;;;;;;;10.16;44.58;101897.47;6260667;28;20303;-72
2021/04/01 15:13:17;;;;;;;4.15;0.75;;;;;;;10.13;44.97;101895.09;6262586;28;20192;-72
2021/04/01 15:16:22;;;;;;;3.63;0.80;;;;;;;10.05;45.23;101896.03;6262677;28;20188;-72
2021/04/01 15:19:27;;;;;;;1.27;0.60;;;;;;;10.18;44.57;101881.75;6244951;28;20204;-73
2021/04/01 15:22:31;;;;;;;0.70;0.70;;;;;;;10.17;44.37;101887.41;6261466;28;20211;-72
2021/04/01 15:25:34;;;;;;;1.13;0.70;;;;;;;10.03;44.67;101876.28;6261713;28;20344;-71
2021/04/01 15:28:38;;;;;;;1.48;0.60;;;;;;;9.97;44.72;101877.03;6262400;28;20247;-72
2021/04/01 15:31:42;;;;;;;0.77;0.75;;;;;;;10.04;44.45;101880.69;6261491;28;20356;-72
2021/04/01 15:34:45;;;;;;;1.27;0.60;;;;;;;10.11;43.88;101882.66;6261535;28;20247;-73
2021/04/01 15:37:49;;;;;;;1.13;0.90;;;;;;;10.07;44.15;101883.03;6262518;28;20252;-72
2021/04/01 15:40:52;;;;;;;1.52;0.60;;;;;;;9.92;43.73;101879.47;6262684;28;20200;-71
2021/04/01 15:43:56;;;;;;;3.22;1.00;;;;;;;9.86;44.24;101869.31;6262158;28;20193;-73
2021/04/01 15:46:59;;;;;;;0.80;0.80;;;;;;;9.91;43.75;101875.03;6261192;28;20417;-72
2021/04/01 15:50:04;;;;;;;1.58;0.80;;;;;;;9.83;43.97;101866.97;6260904;28;20420;-73
2021/04/01 15:53:15;;;;;;;1.25;1.05;;;;;;;9.69;43.48;101873.25;6261080;28;20473;-73
2021/04/01 15:56:18;;;;;;;1.50;1.30;;;;;;;9.73;45.74;101880.00;6262555;28;20191;-72
2021/04/01 15:59:22;;;;;;;1.13;1.13;;;;;;;9.59;44.99;101872.66;6261133;28;20189;-72
2021/04/01 16:02:25;;;;;;;6.43;1.92;;;;;;;9.62;43.87;101866.84;6260812;28;20370;-71